Time;durP1;ratioP1;P1;durP2;ratioP2;P2;SDS_P1;SDS_P2;PMS_P1;PMS_P2;Temp;Humidity;BMP_temperature;BMP_pressure;BME280_temperature;BME280_humidity;BME280_pressure;Samples;Min_cycle;Max_cycle;Signal;HPM_P1;HPM_P2
2023/04/28 00:02:13;;;;;;;8.88;5.65;;;8.80;99.90;;;;;;5099116;28;20048;-69
2023/04/28 00:04:39;;;;;;;11.38;5.55;;;8.70;99.90;;;;;;5099082;28;20052;-69
2023/04/28 00:07:05;;;;;;;9.30;5.45;;;8.70;99.90;;;;;;5098963;28;20314;-69
2023/04/28 00:09:31;;;;;;;13.18;5.05;;;8.80;99.90;;;;;;5098945;28;20036;-69
2023/04/28 00:11:56;;;;;;;9.32;5.47;;;8.70;99.90;;;;;;5098946;28;20119;-69
2023/04/28 00:14:22;;;;;;;12.15;5.72;;;8.60;99.90;;;;;;5098866;28;20028;-69
2023/04/28 00:16:48;;;;;;;10.45;6.05;;;8.50;99.90;;;;;;5098829;28;20440;-69
2023/04/28 00:19:13;;;;;;;8.88;5.30;;;8.50;99.90;;;;;;5098371;28;20337;-69
2023/04/28 00:21:39;;;;;;;8.52;5.30;;;8.60;99.90;;;;;;5098676;28;20452;-69
2023/04/28 00:24:05;;;;;;;11.82;5.40;;;8.70;99.90;;;;;;5098629;28;20103;-69
2023/04/28 00:26:31;;;;;;;10.27;5.53;;;8.60;99.90;;;;;;5098244;28;20036;-69
2023/04/28 00:28:56;;;;;;;11.20;6.22;;;8.60;99.90;;;;;;5097305;28;20127;-69
2023/04/28 00:31:22;;;;;;;10.70;6.15;;;8.60;99.90;;;;;;5098175;28;20087;-69
2023/04/28 00:33:48;;;;;;;8.88;6.15;;;8.60;99.90;;;;;;5098480;28;20131;-69
2023/04/28 00:36:13;;;;;;;13.90;6.03;;;8.70;99.90;;;;;;5098203;28;20052;-69
2023/04/28 00:38:39;;;;;;;10.48;5.97;;;8.60;99.90;;;;;;5098057;28;20078;-69
2023/04/28 00:41:05;;;;;;;14.32;6.47;;;8.70;99.90;;;;;;5098350;28;20071;-69
2023/04/28 00:43:31;;;;;;;11.20;6.43;;;8.70;99.90;;;;;;5098259;28;20161;-69
2023/04/28 00:45:56;;;;;;;11.27;5.82;;;8.80;99.90;;;;;;5098190;28;20382;-69
2023/04/28 00:48:23;;;;;;;11.82;6.65;;;8.80;99.90;;;;;;5096589;28;20040;-69
2023/04/28 00:50:49;;;;;;;12.43;6.25;;;8.80;99.90;;;;;;5098183;28;20050;-69
2023/04/28 00:53:15;;;;;;;9.85;6.15;;;8.80;99.90;;;;;;5098101;28;20036;-69
2023/04/28 00:55:40;;;;;;;11.25;6.30;;;8.80;99.90;;;;;;5098031;28;20044;-70
2023/04/28 00:58:06;;;;;;;12.40;6.63;;;8.70;99.90;;;;;;5097766;28;20084;-70
2023/04/28 01:00:33;;;;;;;10.48;6.53;;;8.70;99.90;;;;;;5097978;28;20113;-69
2023/04/28 01:02:59;;;;;;;12.27;7.20;;;8.60;99.90;;;;;;5097918;28;20082;-69
2023/04/28 01:05:25;;;;;;;15.32;7.32;;;8.70;99.90;;;;;;5097572;28;20153;-69
2023/04/28 01:07:52;;;;;;;13.40;6.72;;;8.60;99.90;;;;;;5097849;28;20039;-69
2023/04/28 01:10:17;;;;;;;10.82;6.57;;;8.50;99.90;;;;;;5097792;28;20090;-69
2023/04/28 01:12:43;;;;;;;12.40;6.82;;;8.50;99.90;;;;;;5097750;28;20449;-69
2023/04/28 01:15:16;;;;;;;12.25;6.97;;;8.40;99.90;;;;;;5096708;28;20325;-69
2023/04/28 01:17:42;;;;;;;11.85;6.63;;;8.40;99.90;;;;;;5097301;28;20059;-70
2023/04/28 01:20:09;;;;;;;12.18;7.43;;;8.40;99.90;;;;;;5097648;28;20421;-69
2023/04/28 01:22:34;;;;;;;12.35;6.15;;;8.50;99.90;;;;;;5097559;28;20384;-69
2023/04/28 01:25:02;;;;;;;13.32;7.05;;;8.40;99.90;;;;;;5096462;28;20075;-69
2023/04/28 01:27:27;;;;;;;16.85;6.75;;;8.40;99.90;;;;;;5097385;28;20040;-69
2023/04/28 01:29:53;;;;;;;12.00;6.78;;;8.50;99.90;;;;;;5097193;28;20085;-69
2023/04/28 01:32:19;;;;;;;16.95;8.25;;;8.50;99.90;;;;;;5097393;28;20050;-69
2023/04/28 01:34:44;;;;;;;12.88;7.60;;;8.50;99.90;;;;;;5079468;28;20051;-69
2023/04/28 01:37:10;;;;;;;14.50;7.50;;;8.40;99.90;;;;;;5097350;28;20440;-69
2023/04/28 01:39:36;;;;;;;13.15;8.00;;;8.40;99.90;;;;;;5097289;28;20063;-69
2023/04/28 01:42:01;;;;;;;14.43;8.38;;;8.30;99.90;;;;;;5096938;28;20085;-68
2023/04/28 01:44:27;;;;;;;13.77;7.72;;;8.40;99.90;;;;;;5096871;28;20043;-69
2023/04/28 01:46:53;;;;;;;15.60;6.82;;;8.40;99.90;;;;;;5096255;28;20036;-69
2023/04/28 01:49:19;;;;;;;17.15;7.70;;;8.40;99.90;;;;;;5096765;28;20029;-69
2023/04/28 01:51:44;;;;;;;12.00;7.22;;;8.50;99.90;;;;;;5097146;28;20306;-69
2023/04/28 01:54:10;;;;;;;12.73;7.63;;;8.40;99.90;;;;;;5097120;28;20038;-68
2023/04/28 01:56:35;;;;;;;11.82;7.32;;;8.40;99.90;;;;;;5096789;28;20104;-68
2023/04/28 01:59:01;;;;;;;11.88;7.25;;;8.30;99.90;;;;;;5096730;28;20040;-68
2023/04/28 02:01:27;;;;;;;15.68;8.48;;;8.40;99.90;;;;;;5095904;28;20052;-68
2023/04/28 02:03:53;;;;;;;15.15;7.65;;;8.40;99.90;;;;;;5096675;28;20118;-68
2023/04/28 02:06:19;;;;;;;16.88;8.63;;;8.20;99.90;;;;;;5096868;28;20032;-68
2023/04/28 02:08:45;;;;;;;14.18;8.15;;;8.20;99.90;;;;;;5095970;28;20036;-68
2023/04/28 02:11:11;;;;;;;17.75;9.07;;;8.10;99.90;;;;;;5096572;28;20039;-68
2023/04/28 02:13:36;;;;;;;18.20;8.90;;;7.90;99.90;;;;;;5096886;28;20047;-68
2023/04/28 02:16:02;;;;;;;15.98;9.55;;;7.90;99.90;;;;;;5095871;28;20124;-68
2023/04/28 02:18:28;;;;;;;18.80;9.30;;;7.90;99.90;;;;;;5096457;28;20036;-68
2023/04/28 02:20:53;;;;;;;17.27;8.93;;;7.90;99.90;;;;;;5096774;28;20097;-68
2023/04/28 02:23:19;;;;;;;19.08;9.70;;;8.00;99.90;;;;;;5097004;28;20445;-68
2023/04/28 02:25:45;;;;;;;22.63;10.32;;;7.90;99.90;;;;;;5096662;28;20041;-68
2023/04/28 02:28:10;;;;;;;21.33;11.25;;;7.80;99.90;;;;;;5096413;28;20040;-68
2023/04/28 02:30:36;;;;;;;18.60;10.43;;;7.80;99.90;;;;;;5096403;28;20085;-68
2023/04/28 02:33:02;;;;;;;18.85;9.65;;;7.70;99.90;;;;;;5096675;28;20032;-69
2023/04/28 02:35:27;;;;;;;20.65;11.43;;;7.80;99.90;;;;;;5096748;28;20040;-68
2023/04/28 02:37:53;;;;;;;21.85;11.63;;;7.80;99.90;;;;;;5096389;28;20082;-68
2023/04/28 02:40:19;;;;;;;23.48;11.25;;;7.80;99.90;;;;;;5096360;28;20040;-68
2023/04/28 02:42:44;;;;;;;21.70;10.88;;;7.80;99.90;;;;;;5096523;28;20040;-68
2023/04/28 02:45:10;;;;;;;22.00;11.40;;;7.60;99.90;;;;;;5096303;28;20040;-68
2023/04/28 02:47:36;;;;;;;23.33;12.25;;;7.70;99.90;;;;;;5096130;28;20047;-68
2023/04/28 02:50:02;;;;;;;24.45;11.63;;;7.80;99.90;;;;;;5096513;28;20036;-69
2023/04/28 02:52:27;;;;;;;19.08;10.75;;;7.80;99.90;;;;;;5096524;28;20075;-68
2023/04/28 02:54:56;;;;;;;21.55;11.40;;;7.80;99.90;;;;;;5096451;28;20115;-69
2023/04/28 02:57:22;;;;;;;19.70;11.38;;;7.80;99.90;;;;;;5095164;28;20089;-69
2023/04/28 02:59:47;;;;;;;25.40;12.32;;;7.70;99.90;;;;;;5099518;28;20318;-69
2023/04/28 03:02:13;;;;;;;25.63;12.75;;;7.70;99.90;;;;;;5099944;28;20084;-69
2023/04/28 03:04:39;;;;;;;24.15;11.93;;;7.70;99.90;;;;;;5100231;28;20044;-68
2023/04/28 03:07:05;;;;;;;29.17;13.45;;;7.70;99.90;;;;;;5099741;28;20429;-69
2023/04/28 03:09:31;;;;;;;23.17;12.15;;;7.80;99.90;;;;;;5100120;28;20043;-69
2023/04/28 03:11:56;;;;;;;24.60;12.80;;;7.80;99.90;;;;;;5100077;28;20106;-69
2023/04/28 03:14:22;;;;;;;22.73;12.20;;;7.80;99.90;;;;;;5100001;28;20043;-68
2023/04/28 03:16:48;;;;;;;23.55;13.00;;;7.90;99.90;;;;;;5099959;28;20494;-68
2023/04/28 03:19:13;;;;;;;22.02;11.98;;;7.90;99.90;;;;;;5099471;28;20067;-69
2023/04/28 03:21:39;;;;;;;30.73;13.52;;;7.80;99.90;;;;;;5099845;28;20075;-69
2023/04/28 03:24:05;;;;;;;30.95;14.25;;;7.70;99.90;;;;;;5098842;28;20085;-69
2023/04/28 03:26:31;;;;;;;26.60;14.23;;;7.70;99.90;;;;;;5099731;28;20052;-69
2023/04/28 03:28:57;;;;;;;29.58;14.25;;;7.80;99.90;;;;;;5099737;28;20377;-69
2023/04/28 03:31:23;;;;;;;27.35;13.90;;;7.70;99.90;;;;;;5099234;28;20088;-68
2023/04/28 03:33:48;;;;;;;29.98;14.32;;;7.80;99.90;;;;;;5099636;28;20044;-69
2023/04/28 03:36:14;;;;;;;32.17;14.88;;;7.70;99.90;;;;;;5099562;28;20113;-69
2023/04/28 03:38:40;;;;;;;27.77;13.75;;;7.70;99.90;;;;;;5099309;28;20425;-69
2023/04/28 03:41:06;;;;;;;30.35;15.48;;;7.70;99.90;;;;;;5099537;28;20321;-69
2023/04/28 03:43:34;;;;;;;33.25;16.40;;;7.80;99.90;;;;;;5099212;28;20385;-68
2023/04/28 03:46:00;;;;;;;29.17;14.90;;;7.60;99.90;;;;;;5099366;28;20076;-68
2023/04/28 03:48:26;;;;;;;30.90;15.60;;;7.60;99.90;;;;;;5099033;28;20063;-69
2023/04/28 03:50:51;;;;;;;35.47;17.10;;;7.70;99.90;;;;;;5099341;28;20357;-68
2023/04/28 03:53:17;;;;;;;35.20;15.88;;;7.80;99.90;;;;;;5098336;28;20042;-68
2023/04/28 03:55:43;;;;;;;34.10;15.90;;;7.80;99.90;;;;;;5099247;28;20382;-69
2023/04/28 03:58:09;;;;;;;34.45;14.82;;;7.80;99.90;;;;;;5099158;28;20391;-68
2023/04/28 04:00:35;;;;;;;32.95;14.95;;;7.70;99.90;;;;;;5099074;28;20096;-69
2023/04/28 04:03:00;;;;;;;29.30;14.43;;;7.60;99.90;;;;;;5099044;28;20036;-69
2023/04/28 04:05:26;;;;;;;31.42;15.43;;;7.70;99.90;;;;;;5097637;28;20044;-69
2023/04/28 04:07:52;;;;;;;29.70;14.52;;;7.70;99.90;;;;;;5099046;28;20036;-69
2023/04/28 04:10:18;;;;;;;29.67;14.23;;;7.80;99.90;;;;;;5098405;28;20131;-69
2023/04/28 04:12:43;;;;;;;34.13;15.23;;;7.80;99.90;;;;;;5098881;28;20039;-68
2023/04/28 04:15:09;;;;;;;29.55;14.88;;;7.80;99.90;;;;;;5098535;28;20330;-68
2023/04/28 04:17:35;;;;;;;33.20;15.40;;;7.80;99.90;;;;;;5098828;28;20054;-68
2023/04/28 04:20:01;;;;;;;30.10;14.55;;;7.80;99.90;;;;;;5098381;28;20036;-69
2023/04/28 04:22:26;;;;;;;28.75;13.52;;;7.90;99.90;;;;;;5098706;28;20117;-68
2023/04/28 04:24:52;;;;;;;25.60;13.77;;;8.00;99.90;;;;;;5098590;28;20046;-69
2023/04/28 04:27:18;;;;;;;27.10;13.98;;;8.20;99.90;;;;;;5098509;28;20071;-69
2023/04/28 04:29:43;;;;;;;25.27;13.23;;;8.20;99.90;;;;;;5098574;28;20091;-69
2023/04/28 04:32:09;;;;;;;30.95;14.65;;;8.20;99.90;;;;;;5098075;28;20097;-69
2023/04/28 04:34:35;;;;;;;24.40;13.63;;;8.20;99.90;;;;;;5098132;28;20039;-69
2023/04/28 04:37:01;;;;;;;26.30;14.20;;;8.00;99.90;;;;;;5098416;28;20044;-68
2023/04/28 04:39:27;;;;;;;31.10;14.68;;;7.90;99.90;;;;;;5098364;28;20114;-69
2023/04/28 04:41:52;;;;;;;27.70;14.18;;;8.00;99.90;;;;;;5098321;28;20040;-68
2023/04/28 04:44:18;;;;;;;26.08;14.13;;;8.00;99.90;;;;;;5098275;28;20047;-69
2023/04/28 04:46:45;;;;;;;28.95;14.52;;;8.00;99.90;;;;;;5098122;28;20098;-69
2023/04/28 04:49:10;;;;;;;27.10;13.85;;;8.20;99.90;;;;;;5097821;28;20040;-69
2023/04/28 04:51:36;;;;;;;24.55;13.45;;;8.30;99.90;;;;;;5097907;28;20047;-69
2023/04/28 04:54:02;;;;;;;26.48;13.90;;;8.30;99.90;;;;;;5098115;28;20039;-69
2023/04/28 04:56:28;;;;;;;29.40;14.73;;;8.40;99.90;;;;;;5097051;28;20333;-69
2023/04/28 04:58:54;;;;;;;24.58;13.32;;;8.40;99.90;;;;;;5097996;28;20127;-69
2023/04/28 05:01:19;;;;;;;32.05;14.05;;;8.30;99.90;;;;;;5097937;28;20039;-69
2023/04/28 05:03:45;;;;;;;28.73;14.00;;;8.20;99.90;;;;;;5097925;28;20044;-69
2023/04/28 05:06:10;;;;;;;29.25;14.05;;;8.10;99.90;;;;;;5097487;28;20040;-69
2023/04/28 05:08:36;;;;;;;33.67;14.30;;;8.10;99.90;;;;;;5097816;28;20036;-68
2023/04/28 05:11:02;;;;;;;28.73;14.13;;;8.20;99.90;;;;;;5097819;28;20068;-68
2023/04/28 05:13:27;;;;;;;29.40;14.25;;;8.20;99.90;;;;;;5096775;28;20032;-69
2023/04/28 05:15:53;;;;;;;25.27;13.43;;;8.20;99.90;;;;;;5097668;28;20043;-68
2023/04/28 05:18:19;;;;;;;28.25;13.50;;;8.20;99.90;;;;;;5097205;28;20115;-69
2023/04/28 05:20:44;;;;;;;27.02;14.35;;;8.30;99.90;;;;;;5097331;28;20349;-69
2023/04/28 05:23:10;;;;;;;24.25;13.00;;;8.30;99.90;;;;;;5096794;28;20040;-68
2023/04/28 05:25:36;;;;;;;26.27;13.30;;;8.30;99.90;;;;;;5096167;28;20044;-68
2023/04/28 05:28:07;;;;;;;22.42;12.68;;;8.40;99.90;;;;;;5097485;28;20111;-67
2023/04/28 05:30:33;;;;;;;27.25;13.95;;;8.40;99.90;;;;;;5097026;28;20452;-68
2023/04/28 05:32:59;;;;;;;28.23;13.15;;;8.40;99.90;;;;;;5097405;28;20115;-68
2023/04/28 05:35:25;;;;;;;30.40;13.52;;;8.40;99.90;;;;;;5097386;28;20348;-68
2023/04/28 05:37:50;;;;;;;26.60;12.82;;;8.30;99.90;;;;;;5097076;28;20413;-68
2023/04/28 05:40:16;;;;;;;26.95;13.85;;;8.40;99.90;;;;;;5097323;28;20089;-68
2023/04/28 05:42:42;;;;;;;24.38;11.70;;;8.50;99.90;;;;;;5097258;28;20044;-68
2023/04/28 05:45:08;;;;;;;26.73;12.80;;;8.60;99.90;;;;;;5096950;28;20166;-68
2023/04/28 05:47:34;;;;;;;24.20;12.02;;;8.50;99.90;;;;;;5097151;28;20123;-68
2023/04/28 05:50:00;;;;;;;27.27;12.65;;;8.50;99.90;;;;;;5096767;28;20067;-68
2023/04/28 05:52:25;;;;;;;26.95;12.82;;;8.60;99.90;;;;;;5096782;28;20047;-68
2023/04/28 05:54:51;;;;;;;25.63;13.35;;;8.50;99.90;;;;;;5096785;28;20040;-68
2023/04/28 05:57:16;;;;;;;25.23;12.95;;;8.60;99.90;;;;;;5097048;28;20047;-68
2023/04/28 05:59:42;;;;;;;23.15;12.32;;;8.80;99.90;;;;;;5097034;28;20040;-68
2023/04/28 06:02:08;;;;;;;26.50;12.52;;;8.90;99.90;;;;;;5096958;28;20044;-68
2023/04/28 06:04:33;;;;;;;23.45;12.27;;;8.90;99.90;;;;;;5096036;28;20115;-68
2023/04/28 06:06:59;;;;;;;24.00;12.40;;;8.90;99.90;;;;;;5096893;28;20376;-68
2023/04/28 06:09:25;;;;;;;22.40;11.38;;;9.10;99.90;;;;;;5096974;28;20443;-68
2023/04/28 06:11:50;;;;;;;20.38;11.20;;;8.80;99.90;;;;;;5096856;28;20036;-68
2023/04/28 06:14:16;;;;;;;25.25;11.95;;;8.90;99.90;;;;;;5096864;28;20040;-68
2023/04/28 06:16:42;;;;;;;21.65;10.88;;;8.90;99.90;;;;;;5096517;28;20048;-68
2023/04/28 06:19:10;;;;;;;22.50;11.40;;;8.80;99.90;;;;;;5096388;28;20040;-68
2023/04/28 06:21:35;;;;;;;21.42;11.70;;;8.70;99.90;;;;;;5079156;28;20337;-68
2023/04/28 06:24:01;;;;;;;21.95;10.75;;;8.80;99.90;;;;;;5096750;28;20044;-68
2023/04/28 06:26:27;;;;;;;20.70;11.30;;;8.90;99.90;;;;;;5096392;28;20044;-68
2023/04/28 06:28:53;;;;;;;22.17;11.52;;;9.10;99.90;;;;;;5096733;28;20040;-69
2023/04/28 06:31:19;;;;;;;19.30;11.07;;;9.20;99.90;;;;;;5096442;28;20055;-68
2023/04/28 06:33:44;;;;;;;22.05;11.68;;;9.30;99.90;;;;;;5098117;28;20048;-68
2023/04/28 06:36:15;;;;;;;18.45;10.75;;;9.30;99.90;;;;;;5100524;28;20080;-68
2023/04/28 06:38:42;;;;;;;21.38;11.45;;;9.30;99.90;;;;;;5099482;28;20047;-68
2023/04/28 06:41:08;;;;;;;23.33;11.20;;;9.30;99.90;;;;;;5100755;28;20040;-68
2023/04/28 06:43:34;;;;;;;21.27;11.02;;;9.30;99.90;;;;;;5100645;28;20044;-68
2023/04/28 06:46:00;;;;;;;21.77;11.73;;;9.30;99.90;;;;;;5100198;28;20375;-68
2023/04/28 06:48:26;;;;;;;21.77;11.65;;;9.40;99.90;;;;;;5099181;28;20036;-68
2023/04/28 06:50:51;;;;;;;21.90;11.43;;;9.50;99.90;;;;;;5100518;28;20421;-68
2023/04/28 06:53:17;;;;;;;17.85;10.48;;;9.60;99.90;;;;;;5100490;28;20040;-68
2023/04/28 06:55:43;;;;;;;22.65;10.45;;;9.50;99.90;;;;;;5100181;28;20043;-68
2023/04/28 06:58:08;;;;;;;17.73;10.38;;;9.50;99.90;;;;;;5100680;28;20048;-68
2023/04/28 07:00:34;;;;;;;17.60;10.23;;;9.40;99.90;;;;;;5100004;28;20050;-68
2023/04/28 07:03:00;;;;;;;17.65;10.48;;;9.40;99.90;;;;;;5100291;28;20044;-68
2023/04/28 07:05:27;;;;;;;18.77;10.43;;;9.30;99.90;;;;;;5099932;28;20040;-68
2023/04/28 07:07:53;;;;;;;19.63;10.52;;;9.40;99.90;;;;;;5099452;28;20115;-68
2023/04/28 07:10:19;;;;;;;20.15;9.80;;;9.40;99.90;;;;;;5098291;28;20422;-68
2023/04/28 07:12:45;;;;;;;17.88;10.05;;;9.40;99.90;;;;;;5099395;28;20032;-69
2023/04/28 07:15:11;;;;;;;16.80;10.13;;;9.60;99.90;;;;;;5099026;28;20036;-68
2023/04/28 07:17:37;;;;;;;21.08;10.32;;;9.40;99.90;;;;;;5099271;28;20048;-68
2023/04/28 07:20:04;;;;;;;18.80;9.90;;;9.50;99.90;;;;;;5099529;28;20044;-68
2023/04/28 07:22:30;;;;;;;17.60;9.63;;;9.50;99.90;;;;;;5099922;28;20040;-70
2023/04/28 07:24:56;;;;;;;18.90;10.27;;;9.80;99.90;;;;;;5099888;28;20449;-66
2023/04/28 07:27:22;;;;;;;18.23;9.75;;;9.90;99.90;;;;;;5099803;28;20043;-67
2023/04/28 07:29:48;;;;;;;17.08;9.75;;;9.90;99.90;;;;;;5115679;28;20044;-66
2023/04/28 07:32:13;;;;;;;18.15;10.75;;;10.00;99.90;;;;;;5098260;28;20386;-66
2023/04/28 07:34:39;;;;;;;18.83;10.05;;;10.20;99.90;;;;;;5099642;28;20032;-66
2023/04/28 07:37:05;;;;;;;20.13;9.75;;;10.00;99.90;;;;;;5099668;28;20417;-66
2023/04/28 07:39:35;;;;;;;16.10;9.95;;;9.80;99.90;;;;;;5099597;28;20111;-66
2023/04/28 07:42:01;;;;;;;21.15;10.63;;;10.00;99.90;;;;;;5099519;28;20044;-67
2023/04/28 07:44:28;;;;;;;18.85;10.63;;;10.10;99.90;;;;;;5098345;28;20040;-66
2023/04/28 07:46:54;;;;;;;17.38;10.18;;;10.20;99.90;;;;;;5098792;28;20079;-67
2023/04/28 07:49:20;;;;;;;21.25;10.88;;;10.10;99.90;;;;;;5099097;28;20087;-67
2023/04/28 07:51:46;;;;;;;20.00;10.40;;;10.10;99.90;;;;;;5098684;28;20044;-67
2023/04/28 07:54:12;;;;;;;20.58;11.32;;;10.00;99.90;;;;;;5099304;28;20306;-65
2023/04/28 07:56:37;;;;;;;18.05;10.13;;;10.00;99.90;;;;;;5099282;28;20040;-67
2023/04/28 07:59:03;;;;;;;25.30;10.63;;;10.10;99.90;;;;;;5099238;28;20432;-66
2023/04/28 08:01:29;;;;;;;22.27;10.63;;;10.30;99.90;;;;;;5098181;28;20047;-67
2023/04/28 08:03:55;;;;;;;20.95;10.82;;;10.40;99.90;;;;;;5099119;28;20337;-67
2023/04/28 08:06:21;;;;;;;18.45;11.05;;;10.50;99.90;;;;;;5098980;28;20044;-67
2023/04/28 08:08:46;;;;;;;17.92;10.48;;;10.70;99.90;;;;;;5099064;28;20077;-67
2023/04/28 08:11:12;;;;;;;18.45;10.07;;;10.70;99.90;;;;;;5098977;28;20032;-66
2023/04/28 08:13:38;;;;;;;18.27;9.95;;;10.60;99.90;;;;;;5098913;28;20032;-67
2023/04/28 08:16:03;;;;;;;22.40;10.80;;;10.70;99.90;;;;;;5098852;28;20123;-67
2023/04/28 08:18:29;;;;;;;16.85;10.80;;;10.70;99.90;;;;;;5098107;28;20032;-67
2023/04/28 08:20:55;;;;;;;19.90;11.02;;;10.70;99.90;;;;;;5098776;28;20042;-67
2023/04/28 08:23:21;;;;;;;18.08;10.35;;;10.80;99.90;;;;;;5098725;28;20039;-67
2023/04/28 08:25:46;;;;;;;18.58;11.05;;;10.80;99.90;;;;;;5098296;28;20052;-67
2023/04/28 08:28:12;;;;;;;19.08;10.70;;;11.00;99.90;;;;;;5098666;28;20089;-67
2023/04/28 08:30:38;;;;;;;18.02;10.60;;;11.00;99.90;;;;;;5098350;28;20102;-67
2023/04/28 08:33:04;;;;;;;15.90;9.98;;;11.00;99.90;;;;;;5098228;28;20452;-68
2023/04/28 08:35:30;;;;;;;22.10;10.82;;;11.10;99.90;;;;;;5097531;28;20067;-67
2023/04/28 08:37:56;;;;;;;20.95;10.35;;;11.00;99.90;;;;;;5098454;28;20477;-67
2023/04/28 08:40:23;;;;;;;17.20;10.48;;;11.30;99.90;;;;;;5098076;28;20413;-67
2023/04/28 08:42:49;;;;;;;23.25;10.38;;;11.30;99.90;;;;;;5098410;28;20032;-67
2023/04/28 08:45:15;;;;;;;19.77;10.38;;;11.30;99.90;;;;;;5098342;28;20063;-67
2023/04/28 08:47:44;;;;;;;22.17;10.68;;;11.40;99.90;;;;;;5097819;28;20040;-68
2023/04/28 08:50:11;;;;;;;21.58;10.73;;;11.40;99.90;;;;;;5097820;28;20394;-67
2023/04/28 08:52:39;;;;;;;18.77;10.98;;;11.40;99.90;;;;;;5098170;28;20325;-67
2023/04/28 08:55:12;;;;;;;19.17;10.35;;;11.50;99.90;;;;;;5097817;28;20128;-67
2023/04/28 08:57:48;;;;;;;19.88;10.65;;;11.40;99.90;;;;;;5097687;28;20044;-67
2023/04/28 09:00:14;;;;;;;18.50;10.57;;;11.60;99.90;;;;;;5098061;28;20082;-67
2023/04/28 09:02:40;;;;;;;21.95;11.85;;;11.60;99.90;;;;;;5097978;28;20043;-67
2023/04/28 09:05:07;;;;;;;25.30;11.65;;;11.60;99.90;;;;;;5096620;28;20429;-67
2023/04/28 09:07:33;;;;;;;18.27;10.77;;;11.50;99.90;;;;;;5097481;28;20042;-67
2023/04/28 09:10:21;;;;;;;17.70;10.25;;;11.50;99.90;;;;;;5097816;28;20028;-67
2023/04/28 09:12:50;;;;;;;26.80;11.43;;;11.60;99.90;;;;;;5097461;28;20413;-67
2023/04/28 09:15:36;;;;;;;20.75;11.55;;;11.70;99.90;;;;;;5096762;28;20040;-67
2023/04/28 09:18:05;;;;;;;21.95;11.57;;;11.70;99.90;;;;;;5097424;28;20036;-68
2023/04/28 09:20:32;;;;;;;24.02;12.32;;;11.60;99.90;;;;;;5097399;28;20071;-69
2023/04/28 09:23:21;;;;;;;16.92;10.57;;;11.60;99.90;;;;;;5097647;28;20106;-66
2023/04/28 09:26:05;;;;;;;20.25;10.73;;;11.70;99.90;;;;;;5097319;28;20115;-66
2023/04/28 09:28:32;;;;;;;23.75;11.10;;;11.80;99.90;;;;;;5097327;28;20052;-67
2023/04/28 09:30:57;;;;;;;17.35;9.98;;;12.00;99.90;;;;;;5097174;28;20060;-66
2023/04/28 09:33:23;;;;;;;20.42;10.85;;;12.10;99.90;;;;;;5113107;28;20066;-66
2023/04/28 09:35:49;;;;;;;20.23;10.30;;;12.10;99.90;;;;;;5097412;28;20111;-67
2023/04/28 09:38:16;;;;;;;18.55;10.63;;;12.20;99.90;;;;;;5097005;28;20189;-67
2023/04/28 09:40:59;;;;;;;17.65;10.15;;;12.00;99.90;;;;;;5097309;28;20036;-67
2023/04/28 09:43:32;;;;;;;16.40;10.15;;;12.20;99.90;;;;;;5096956;28;20437;-67
2023/04/28 09:46:03;;;;;;;17.00;10.15;;;12.40;99.90;;;;;;5097178;28;20330;-67
2023/04/28 09:48:34;;;;;;;20.98;11.10;;;12.60;99.90;;;;;;5096565;28;20040;-67
2023/04/28 09:51:06;;;;;;;17.85;10.23;;;12.70;99.90;;;;;;5096156;28;20054;-67
2023/04/28 09:53:33;;;;;;;16.83;9.68;;;13.00;99.90;;;;;;5096991;28;20043;-67
2023/04/28 09:56:01;;;;;;;15.27;10.02;;;13.10;99.90;;;;;;5096801;28;20439;-67
2023/04/28 09:58:28;;;;;;;17.33;10.00;;;13.20;99.90;;;;;;5096776;28;20560;-67
2023/04/28 10:00:56;;;;;;;17.67;9.98;;;13.50;99.90;;;;;;5095747;28;20047;-67
2023/04/28 10:03:24;;;;;;;16.70;9.63;;;13.60;99.90;;;;;;5097061;28;20321;-67
2023/04/28 10:05:52;;;;;;;16.02;9.70;;;13.80;99.90;;;;;;5096920;28;20040;-67
2023/04/28 10:08:19;;;;;;;18.65;10.70;;;14.10;99.90;;;;;;5096499;28;20109;-77
2023/04/28 10:10:48;;;;;;;18.65;10.45;;;14.10;99.90;;;;;;5095821;28;20080;-69
2023/04/28 10:13:18;;;;;;;19.60;10.30;;;14.00;99.90;;;;;;5096938;28;20032;-69
2023/04/28 10:15:48;;;;;;;15.73;9.57;;;14.10;99.90;;;;;;5097382;28;20083;-67
2023/04/28 10:18:14;;;;;;;14.95;10.00;;;13.50;99.90;;;;;;5096153;28;20043;-67
2023/04/28 10:20:48;;;;;;;16.15;9.70;;;13.50;99.90;;;;;;5095517;28;20444;-66
2023/04/28 10:23:26;;;;;;;16.80;9.65;;;13.70;99.90;;;;;;5095691;28;20079;-67
2023/04/28 10:25:56;;;;;;;16.10;10.68;;;13.90;99.90;;;;;;5096691;28;20109;-67
2023/04/28 10:28:23;;;;;;;15.13;9.98;;;14.00;99.90;;;;;;5096532;28;20119;-67
2023/04/28 10:31:08;;;;;;;16.23;9.73;;;14.50;99.90;;;;;;5096452;28;20048;-67
2023/04/28 10:33:34;;;;;;;17.17;9.43;;;14.40;99.90;;;;;;5096771;28;20059;-66
2023/04/28 10:36:03;;;;;;;16.95;10.05;;;14.50;99.90;;;;;;5096662;28;20421;-68
2023/04/28 10:38:28;;;;;;;18.95;9.88;;;14.70;99.90;;;;;;5095582;28;20055;-67
2023/04/28 10:40:54;;;;;;;18.20;10.32;;;14.80;99.90;;;;;;5096670;28;20052;-67
2023/04/28 10:43:30;;;;;;;18.30;10.77;;;14.70;99.90;;;;;;5096897;28;20387;-66
2023/04/28 10:46:00;;;;;;;16.33;9.75;;;14.60;99.90;;;;;;5096258;28;20430;-66
2023/04/28 10:48:25;;;;;;;19.23;10.27;;;14.60;99.90;;;;;;5095858;28;20878;-67
2023/04/28 10:51:03;;;;;;;18.88;10.63;;;14.50;99.90;;;;;;5095329;28;20040;-67
2023/04/28 10:53:44;;;;;;;17.40;10.35;;;14.40;99.90;;;;;;5096541;28;20066;-68
2023/04/28 10:56:10;;;;;;;16.92;10.50;;;14.50;99.90;;;;;;5096468;28;20055;-68
2023/04/28 10:58:41;;;;;;;17.73;10.55;;;14.50;99.90;;;;;;5096282;28;20100;-68
2023/04/28 11:01:30;;;;;;;16.60;9.85;;;14.40;99.90;;;;;;5096311;28;20468;-67
2023/04/28 11:04:01;;;;;;;17.08;10.88;;;14.20;99.90;;;;;;5096492;28;20115;-68
2023/04/28 11:06:33;;;;;;;16.00;11.32;;;14.20;99.90;;;;;;5095721;28;20048;-69
2023/04/28 11:09:02;;;;;;;24.40;12.02;;;14.20;99.90;;;;;;5092964;28;20089;-68
2023/04/28 11:11:37;;;;;;;18.33;11.65;;;14.20;99.90;;;;;;5093399;28;20123;-68
2023/04/28 11:14:18;;;;;;;18.27;11.40;;;13.90;99.90;;;;;;5094549;28;20040;-68
2023/04/28 11:17:01;;;;;;;22.10;12.32;;;13.80;99.90;;;;;;5095175;28;20044;-68
2023/04/28 11:19:42;;;;;;;21.77;12.93;;;13.80;99.90;;;;;;5092777;28;20107;-66
2023/04/28 11:22:16;;;;;;;22.83;13.70;;;13.80;99.90;;;;;;5098324;28;20119;-67
2023/04/28 11:24:56;;;;;;;19.85;13.32;;;13.90;99.90;;;;;;5099945;28;20036;-70
2023/04/28 11:27:29;;;;;;;17.58;11.90;;;14.00;99.90;;;;;;5099584;28;20040;-67
2023/04/28 11:29:55;;;;;;;18.35;12.57;;;14.10;99.90;;;;;;5099678;28;20325;-67
2023/04/28 11:32:34;;;;;;;21.33;14.25;;;13.90;99.90;;;;;;5099669;28;20040;-68
2023/04/28 11:35:00;;;;;;;20.00;13.75;;;14.10;99.90;;;;;;5099769;28;20032;-67
2023/04/28 11:37:26;;;;;;;19.80;12.68;;;14.20;99.90;;;;;;5099821;28;20114;-68
2023/04/28 11:39:52;;;;;;;19.13;13.50;;;14.30;99.90;;;;;;5098596;28;20468;-68
2023/04/28 11:42:17;;;;;;;18.73;13.00;;;14.40;99.90;;;;;;5099618;28;20072;-68
2023/04/28 11:44:51;;;;;;;25.65;14.00;;;14.30;99.90;;;;;;5099500;28;20090;-69
2023/04/28 11:47:28;;;;;;;17.45;11.95;;;14.30;99.90;;;;;;5099107;28;20082;-68
2023/04/28 11:49:54;;;;;;;21.80;11.70;;;14.30;99.90;;;;;;5097778;28;20051;-68
2023/04/28 11:52:20;;;;;;;21.38;12.13;;;14.40;99.90;;;;;;5099085;28;20146;-68
2023/04/28 11:54:56;;;;;;;18.48;11.70;;;14.50;99.90;;;;;;5098022;28;20099;-68
2023/04/28 11:57:22;;;;;;;18.52;11.35;;;14.50;99.90;;;;;;5099371;28;20043;-68
2023/04/28 11:59:48;;;;;;;19.35;11.32;;;14.40;99.90;;;;;;5098940;28;20448;-68
2023/04/28 12:02:15;;;;;;;18.20;10.82;;;14.40;99.90;;;;;;5080998;28;20059;-68
2023/04/28 12:04:43;;;;;;;17.88;10.23;;;14.40;99.90;;;;;;5099125;28;20046;-69
2023/04/28 12:07:17;;;;;;;19.42;11.70;;;14.20;99.90;;;;;;5099044;28;20040;-67
2023/04/28 12:09:47;;;;;;;19.17;10.68;;;14.20;99.90;;;;;;5098876;28;20066;-69
2023/04/28 12:12:28;;;;;;;16.83;10.98;;;14.10;99.90;;;;;;5099012;28;20036;-68
2023/04/28 12:14:56;;;;;;;18.10;11.38;;;14.30;99.90;;;;;;5099218;28;20042;-68
2023/04/28 12:17:26;;;;;;;16.63;11.10;;;14.20;99.90;;;;;;5098594;28;20054;-68
2023/04/28 12:19:54;;;;;;;16.20;11.13;;;14.20;99.90;;;;;;5080345;28;20040;-68
2023/04/28 12:22:19;;;;;;;18.65;10.68;;;14.30;99.90;;;;;;5098826;28;20131;-68
2023/04/28 12:24:45;;;;;;;16.20;10.43;;;14.30;99.90;;;;;;5098737;28;20068;-68
2023/04/28 12:27:16;;;;;;;21.08;11.65;;;14.40;99.90;;;;;;5097333;28;20055;-68
2023/04/28 12:29:44;;;;;;;19.77;11.45;;;14.30;99.90;;;;;;5098716;28;20036;-68
2023/04/28 12:32:11;;;;;;;16.85;11.20;;;14.30;99.90;;;;;;5097993;28;20048;-67
2023/04/28 12:34:38;;;;;;;19.45;11.23;;;14.40;99.90;;;;;;5098334;28;20048;-68
2023/04/28 12:37:04;;;;;;;16.85;11.05;;;14.50;99.90;;;;;;5098176;28;20429;-67